sensor_id;sensor_type;location;lat;lon;timestamp;P1;durP1;ratioP1;P2;durP2;ratioP2
2039;SDS011;1025;42.686;23.350;2023-08-21T00:00:04;7.23;;;6.57;;
2039;SDS011;1025;42.686;23.350;2023-08-21T00:02:32;7.90;;;6.40;;
2039;SDS011;1025;42.686;23.350;2023-08-21T00:04:58;7.80;;;7.00;;
2039;SDS011;1025;42.686;23.350;2023-08-21T00:07:25;9.07;;;6.60;;
2039;SDS011;1025;42.686;23.350;2023-08-21T00:09:51;6.50;;;6.00;;
2039;SDS011;1025;42.686;23.350;2023-08-21T00:12:20;6.80;;;5.90;;
2039;SDS011;1025;42.686;23.350;2023-08-21T00:14:46;6.80;;;6.20;;
2039;SDS011;1025;42.686;23.350;2023-08-21T00:17:13;7.87;;;7.00;;
2039;SDS011;1025;42.686;23.350;2023-08-21T00:19:41;6.40;;;5.90;;
2039;SDS011;1025;42.686;23.350;2023-08-21T00:22:08;7.10;;;6.50;;
2039;SDS011;1025;42.686;23.350;2023-08-21T00:24:34;6.77;;;6.17;;
2039;SDS011;1025;42.686;23.350;2023-08-21T00:27:01;6.20;;;5.70;;
2039;SDS011;1025;42.686;23.350;2023-08-21T00:29:34;7.00;;;6.50;;
2039;SDS011;1025;42.686;23.350;2023-08-21T00:32:13;5.70;;;5.20;;
2039;SDS011;1025;42.686;23.350;2023-08-21T00:34:39;8.47;;;7.00;;
2039;SDS011;1025;42.686;23.350;2023-08-21T00:37:07;6.60;;;6.10;;
2039;SDS011;1025;42.686;23.350;2023-08-21T00:39:34;6.63;;;6.00;;
2039;SDS011;1025;42.686;23.350;2023-08-21T00:42:00;5.93;;;5.33;;
2039;SDS011;1025;42.686;23.350;2023-08-21T00:44:27;7.43;;;6.60;;
2039;SDS011;1025;42.686;23.350;2023-08-21T00:46:54;6.80;;;6.30;;
2039;SDS011;1025;42.686;23.350;2023-08-21T00:49:22;6.27;;;5.67;;
2039;SDS011;1025;42.686;23.350;2023-08-21T00:51:49;7.53;;;5.87;;
2039;SDS011;1025;42.686;23.350;2023-08-21T00:54:17;8.27;;;6.10;;
2039;SDS011;1025;42.686;23.350;2023-08-21T00:56:45;11.93;;;6.63;;
2039;SDS011;1025;42.686;23.350;2023-08-21T00:59:11;7.73;;;5.97;;
2039;SDS011;1025;42.686;23.350;2023-08-21T01:01:38;7.23;;;6.20;;
2039;SDS011;1025;42.686;23.350;2023-08-21T01:04:05;7.47;;;5.70;;
2039;SDS011;1025;42.686;23.350;2023-08-21T01:06:31;6.77;;;6.27;;
2039;SDS011;1025;42.686;23.350;2023-08-21T01:09:00;6.77;;;6.17;;
2039;SDS011;1025;42.686;23.350;2023-08-21T01:11:31;6.00;;;5.50;;
2039;SDS011;1025;42.686;23.350;2023-08-21T01:14:02;8.57;;;6.73;;
2039;SDS011;1025;42.686;23.350;2023-08-21T01:16:30;9.00;;;5.90;;
2039;SDS011;1025;42.686;23.350;2023-08-21T01:18:57;6.90;;;6.30;;
2039;SDS011;1025;42.686;23.350;2023-08-21T01:21:25;6.73;;;6.23;;
2039;SDS011;1025;42.686;23.350;2023-08-21T01:23:53;6.73;;;6.17;;
2039;SDS011;1025;42.686;23.350;2023-08-21T01:26:20;7.63;;;5.90;;
2039;SDS011;1025;42.686;23.350;2023-08-21T01:28:47;9.83;;;7.10;;
2039;SDS011;1025;42.686;23.350;2023-08-21T01:31:14;7.43;;;6.53;;
2039;SDS011;1025;42.686;23.350;2023-08-21T01:33:43;6.33;;;5.50;;
2039;SDS011;1025;42.686;23.350;2023-08-21T01:36:11;6.60;;;6.10;;
2039;SDS011;1025;42.686;23.350;2023-08-21T01:38:40;6.80;;;6.30;;
2039;SDS011;1025;42.686;23.350;2023-08-21T01:41:08;6.93;;;6.17;;
2039;SDS011;1025;42.686;23.350;2023-08-21T01:43:36;7.47;;;6.27;;
2039;SDS011;1025;42.686;23.350;2023-08-21T01:46:02;8.30;;;6.00;;
2039;SDS011;1025;42.686;23.350;2023-08-21T01:48:29;10.77;;;6.87;;
2039;SDS011;1025;42.686;23.350;2023-08-21T01:50:55;7.67;;;6.87;;
2039;SDS011;1025;42.686;23.350;2023-08-21T01:53:22;6.50;;;5.90;;
2039;SDS011;1025;42.686;23.350;2023-08-21T01:55:49;6.30;;;5.73;;
2039;SDS011;1025;42.686;23.350;2023-08-21T01:58:17;8.23;;;6.73;;
2039;SDS011;1025;42.686;23.350;2023-08-21T02:00:45;7.13;;;6.50;;
2039;SDS011;1025;42.686;23.350;2023-08-21T02:03:11;8.53;;;7.07;;
2039;SDS011;1025;42.686;23.350;2023-08-21T02:05:38;7.00;;;6.40;;
2039;SDS011;1025;42.686;23.350;2023-08-21T02:08:05;12.23;;;6.33;;
2039;SDS011;1025;42.686;23.350;2023-08-21T02:10:32;7.10;;;6.33;;
2039;SDS011;1025;42.686;23.350;2023-08-21T02:12:58;10.00;;;8.67;;
2039;SDS011;1025;42.686;23.350;2023-08-21T02:15:26;8.00;;;7.20;;
2039;SDS011;1025;42.686;23.350;2023-08-21T02:17:53;7.63;;;6.93;;
2039;SDS011;1025;42.686;23.350;2023-08-21T02:20:19;7.90;;;6.67;;
2039;SDS011;1025;42.686;23.350;2023-08-21T02:22:46;8.10;;;7.30;;
2039;SDS011;1025;42.686;23.350;2023-08-21T02:25:13;7.60;;;6.90;;
2039;SDS011;1025;42.686;23.350;2023-08-21T02:27:39;6.87;;;6.23;;
2039;SDS011;1025;42.686;23.350;2023-08-21T02:30:06;7.57;;;7.00;;
2039;SDS011;1025;42.686;23.350;2023-08-21T02:32:34;12.07;;;10.80;;
2039;SDS011;1025;42.686;23.350;2023-08-21T02:35:03;8.00;;;7.23;;
2039;SDS011;1025;42.686;23.350;2023-08-21T02:37:31;10.73;;;7.07;;
2039;SDS011;1025;42.686;23.350;2023-08-21T02:39:57;8.50;;;7.20;;
2039;SDS011;1025;42.686;23.350;2023-08-21T02:42:24;8.40;;;7.63;;
2039;SDS011;1025;42.686;23.350;2023-08-21T02:44:51;8.03;;;7.13;;
2039;SDS011;1025;42.686;23.350;2023-08-21T02:47:17;8.67;;;7.57;;
2039;SDS011;1025;42.686;23.350;2023-08-21T02:49:45;12.77;;;8.43;;
2039;SDS011;1025;42.686;23.350;2023-08-21T02:52:12;8.03;;;7.23;;
2039;SDS011;1025;42.686;23.350;2023-08-21T02:54:38;8.83;;;8.00;;
2039;SDS011;1025;42.686;23.350;2023-08-21T02:57:05;12.33;;;8.50;;
2039;SDS011;1025;42.686;23.350;2023-08-21T02:59:31;8.23;;;7.43;;
2039;SDS011;1025;42.686;23.350;2023-08-21T03:01:58;12.13;;;8.10;;
2039;SDS011;1025;42.686;23.350;2023-08-21T03:04:24;7.90;;;7.20;;
2039;SDS011;1025;42.686;23.350;2023-08-21T03:06:52;13.23;;;7.90;;
2039;SDS011;1025;42.686;23.350;2023-08-21T03:09:19;10.17;;;7.50;;
2039;SDS011;1025;42.686;23.350;2023-08-21T03:11:45;9.40;;;8.60;;
2039;SDS011;1025;42.686;23.350;2023-08-21T03:14:12;8.23;;;7.47;;
2039;SDS011;1025;42.686;23.350;2023-08-21T03:16:39;13.67;;;8.40;;
2039;SDS011;1025;42.686;23.350;2023-08-21T03:19:05;16.50;;;9.67;;
2039;SDS011;1025;42.686;23.350;2023-08-21T03:21:32;10.43;;;8.97;;
2039;SDS011;1025;42.686;23.350;2023-08-21T03:24:00;13.27;;;8.70;;
2039;SDS011;1025;42.686;23.350;2023-08-21T03:26:28;14.90;;;10.37;;
2039;SDS011;1025;42.686;23.350;2023-08-21T03:28:54;9.97;;;9.10;;
2039;SDS011;1025;42.686;23.350;2023-08-21T03:31:21;15.40;;;11.60;;
2039;SDS011;1025;42.686;23.350;2023-08-21T03:33:50;14.80;;;8.47;;
2039;SDS011;1025;42.686;23.350;2023-08-21T03:36:16;8.83;;;7.90;;
2039;SDS011;1025;42.686;23.350;2023-08-21T03:38:44;10.47;;;8.20;;
2039;SDS011;1025;42.686;23.350;2023-08-21T03:41:13;9.83;;;8.87;;
2039;SDS011;1025;42.686;23.350;2023-08-21T03:43:55;16.93;;;10.00;;
2039;SDS011;1025;42.686;23.350;2023-08-21T03:46:25;11.60;;;8.50;;
2039;SDS011;1025;42.686;23.350;2023-08-21T03:49:04;12.90;;;11.20;;
2039;SDS011;1025;42.686;23.350;2023-08-21T03:51:34;11.00;;;8.80;;
2039;SDS011;1025;42.686;23.350;2023-08-21T03:54:01;11.10;;;7.80;;
2039;SDS011;1025;42.686;23.350;2023-08-21T03:56:32;14.53;;;10.13;;
2039;SDS011;1025;42.686;23.350;2023-08-21T03:58:59;11.30;;;8.60;;
2039;SDS011;1025;42.686;23.350;2023-08-21T04:01:25;12.23;;;9.23;;
2039;SDS011;1025;42.686;23.350;2023-08-21T04:03:52;14.67;;;9.97;;
2039;SDS011;1025;42.686;23.350;2023-08-21T04:06:18;12.40;;;10.10;;
2039;SDS011;1025;42.686;23.350;2023-08-21T04:08:45;9.57;;;8.40;;
2039;SDS011;1025;42.686;23.350;2023-08-21T04:11:11;15.40;;;10.67;;
2039;SDS011;1025;42.686;23.350;2023-08-21T04:13:39;12.73;;;9.57;;
2039;SDS011;1025;42.686;23.350;2023-08-21T04:16:06;16.70;;;10.80;;
2039;SDS011;1025;42.686;23.350;2023-08-21T04:18:33;14.37;;;9.77;;
2039;SDS011;1025;42.686;23.350;2023-08-21T04:21:01;11.07;;;9.33;;
2039;SDS011;1025;42.686;23.350;2023-08-21T04:23:28;12.33;;;10.20;;
2039;SDS011;1025;42.686;23.350;2023-08-21T04:25:59;16.73;;;10.20;;
2039;SDS011;1025;42.686;23.350;2023-08-21T04:28:26;18.47;;;10.30;;
2039;SDS011;1025;42.686;23.350;2023-08-21T04:30:55;18.47;;;9.13;;
2039;SDS011;1025;42.686;23.350;2023-08-21T04:33:22;10.60;;;9.13;;
2039;SDS011;1025;42.686;23.350;2023-08-21T04:35:49;11.40;;;9.87;;
2039;SDS011;1025;42.686;23.350;2023-08-21T04:38:15;9.43;;;8.50;;
2039;SDS011;1025;42.686;23.350;2023-08-21T04:40:42;11.20;;;9.27;;
2039;SDS011;1025;42.686;23.350;2023-08-21T04:43:08;13.10;;;8.57;;
2039;SDS011;1025;42.686;23.350;2023-08-21T04:45:35;11.83;;;8.67;;
2039;SDS011;1025;42.686;23.350;2023-08-21T04:48:04;19.80;;;9.83;;
2039;SDS011;1025;42.686;23.350;2023-08-21T04:50:30;9.17;;;8.17;;
2039;SDS011;1025;42.686;23.350;2023-08-21T04:52:57;9.43;;;8.47;;
2039;SDS011;1025;42.686;23.350;2023-08-21T04:55:23;9.87;;;8.87;;
2039;SDS011;1025;42.686;23.350;2023-08-21T04:57:50;12.40;;;9.93;;
2039;SDS011;1025;42.686;23.350;2023-08-21T05:00:17;11.40;;;7.70;;
2039;SDS011;1025;42.686;23.350;2023-08-21T05:02:43;8.80;;;8.00;;
2039;SDS011;1025;42.686;23.350;2023-08-21T05:05:11;10.57;;;8.27;;
2039;SDS011;1025;42.686;23.350;2023-08-21T05:07:38;10.07;;;8.80;;
2039;SDS011;1025;42.686;23.350;2023-08-21T05:10:05;9.33;;;8.63;;
2039;SDS011;1025;42.686;23.350;2023-08-21T05:12:31;11.60;;;9.70;;
2039;SDS011;1025;42.686;23.350;2023-08-21T05:14:58;10.90;;;8.00;;
2039;SDS011;1025;42.686;23.350;2023-08-21T05:17:24;10.20;;;8.67;;
2039;SDS011;1025;42.686;23.350;2023-08-21T05:19:51;16.43;;;9.90;;
2039;SDS011;1025;42.686;23.350;2023-08-21T05:22:19;10.70;;;9.47;;
2039;SDS011;1025;42.686;23.350;2023-08-21T05:24:46;9.07;;;8.37;;
2039;SDS011;1025;42.686;23.350;2023-08-21T05:27:12;10.10;;;8.47;;
2039;SDS011;1025;42.686;23.350;2023-08-21T05:29:39;9.80;;;8.90;;
2039;SDS011;1025;42.686;23.350;2023-08-21T05:32:05;14.97;;;9.53;;
2039;SDS011;1025;42.686;23.350;2023-08-21T05:34:32;18.87;;;14.80;;
2039;SDS011;1025;42.686;23.350;2023-08-21T05:36:58;12.97;;;8.77;;
2039;SDS011;1025;42.686;23.350;2023-08-21T05:39:26;8.83;;;8.03;;
2039;SDS011;1025;42.686;23.350;2023-08-21T05:41:53;14.03;;;8.90;;
2039;SDS011;1025;42.686;23.350;2023-08-21T05:44:20;11.57;;;10.37;;
2039;SDS011;1025;42.686;23.350;2023-08-21T05:46:46;13.47;;;9.00;;
2039;SDS011;1025;42.686;23.350;2023-08-21T05:49:13;20.07;;;9.90;;
2039;SDS011;1025;42.686;23.350;2023-08-21T05:51:39;8.80;;;7.83;;
2039;SDS011;1025;42.686;23.350;2023-08-21T05:54:08;9.30;;;7.70;;
2039;SDS011;1025;42.686;23.350;2023-08-21T05:56:36;7.82;;;6.75;;
2039;SDS011;1025;42.686;23.350;2023-08-21T05:59:02;7.97;;;7.20;;
2039;SDS011;1025;42.686;23.350;2023-08-21T06:01:29;9.60;;;8.60;;
2039;SDS011;1025;42.686;23.350;2023-08-21T06:03:57;12.43;;;9.00;;
2039;SDS011;1025;42.686;23.350;2023-08-21T06:06:23;8.53;;;7.73;;
2039;SDS011;1025;42.686;23.350;2023-08-21T06:08:51;10.70;;;7.30;;
2039;SDS011;1025;42.686;23.350;2023-08-21T06:11:18;7.83;;;7.03;;
2039;SDS011;1025;42.686;23.350;2023-08-21T06:13:47;8.50;;;7.60;;
2039;SDS011;1025;42.686;23.350;2023-08-21T06:16:13;8.17;;;7.13;;
2039;SDS011;1025;42.686;23.350;2023-08-21T06:18:41;7.60;;;6.90;;
2039;SDS011;1025;42.686;23.350;2023-08-21T06:21:07;9.27;;;8.37;;
2039;SDS011;1025;42.686;23.350;2023-08-21T06:23:35;8.00;;;7.20;;
2039;SDS011;1025;42.686;23.350;2023-08-21T06:26:01;11.80;;;8.27;;
2039;SDS011;1025;42.686;23.350;2023-08-21T06:28:28;11.23;;;7.37;;
2039;SDS011;1025;42.686;23.350;2023-08-21T06:30:56;11.67;;;10.47;;
2039;SDS011;1025;42.686;23.350;2023-08-21T06:33:23;7.73;;;6.73;;
2039;SDS011;1025;42.686;23.350;2023-08-21T06:35:50;8.93;;;7.13;;
2039;SDS011;1025;42.686;23.350;2023-08-21T06:38:16;8.50;;;7.17;;
2039;SDS011;1025;42.686;23.350;2023-08-21T06:40:44;8.43;;;7.60;;
2039;SDS011;1025;42.686;23.350;2023-08-21T06:43:10;11.37;;;7.93;;
2039;SDS011;1025;42.686;23.350;2023-08-21T06:45:37;8.63;;;7.80;;
2039;SDS011;1025;42.686;23.350;2023-08-21T06:48:05;8.87;;;7.57;;
2039;SDS011;1025;42.686;23.350;2023-08-21T06:50:31;8.83;;;7.20;;
2039;SDS011;1025;42.686;23.350;2023-08-21T06:52:58;8.93;;;8.23;;
2039;SDS011;1025;42.686;23.350;2023-08-21T06:55:25;15.40;;;7.80;;
2039;SDS011;1025;42.686;23.350;2023-08-21T06:57:51;9.47;;;8.37;;
2039;SDS011;1025;42.686;23.350;2023-08-21T07:00:20;9.73;;;7.67;;
2039;SDS011;1025;42.686;23.350;2023-08-21T07:02:46;10.43;;;7.30;;
2039;SDS011;1025;42.686;23.350;2023-08-21T07:05:14;10.43;;;7.67;;
2039;SDS011;1025;42.686;23.350;2023-08-21T07:07:41;15.47;;;8.90;;
2039;SDS011;1025;42.686;23.350;2023-08-21T07:10:08;12.53;;;7.67;;
2039;SDS011;1025;42.686;23.350;2023-08-21T07:12:34;9.60;;;7.10;;
2039;SDS011;1025;42.686;23.350;2023-08-21T07:15:03;9.70;;;7.33;;
2039;SDS011;1025;42.686;23.350;2023-08-21T07:17:30;7.93;;;6.70;;
2039;SDS011;1025;42.686;23.350;2023-08-21T07:19:56;9.17;;;8.27;;
2039;SDS011;1025;42.686;23.350;2023-08-21T07:22:26;8.90;;;8.10;;
2039;SDS011;1025;42.686;23.350;2023-08-21T07:24:54;11.53;;;7.47;;
2039;SDS011;1025;42.686;23.350;2023-08-21T07:27:20;10.27;;;7.47;;
2039;SDS011;1025;42.686;23.350;2023-08-21T07:29:47;7.73;;;7.03;;
2039;SDS011;1025;42.686;23.350;2023-08-21T07:32:13;10.93;;;7.53;;
2039;SDS011;1025;42.686;23.350;2023-08-21T07:34:40;7.10;;;6.40;;
2039;SDS011;1025;42.686;23.350;2023-08-21T07:37:07;9.97;;;7.33;;
2039;SDS011;1025;42.686;23.350;2023-08-21T07:39:35;11.00;;;7.63;;
2039;SDS011;1025;42.686;23.350;2023-08-21T07:42:01;11.03;;;8.23;;
2039;SDS011;1025;42.686;23.350;2023-08-21T07:44:28;7.77;;;7.17;;
2039;SDS011;1025;42.686;23.350;2023-08-21T07:46:54;9.30;;;7.70;;
2039;SDS011;1025;42.686;23.350;2023-08-21T07:49:21;8.07;;;6.40;;
2039;SDS011;1025;42.686;23.350;2023-08-21T07:51:47;8.67;;;5.83;;
2039;SDS011;1025;42.686;23.350;2023-08-21T07:54:14;7.17;;;6.20;;
2039;SDS011;1025;42.686;23.350;2023-08-21T07:56:42;11.13;;;6.33;;
2039;SDS011;1025;42.686;23.350;2023-08-21T07:59:08;6.13;;;5.67;;
2039;SDS011;1025;42.686;23.350;2023-08-21T08:01:35;11.47;;;7.50;;
2039;SDS011;1025;42.686;23.350;2023-08-21T08:04:01;7.83;;;7.03;;
2039;SDS011;1025;42.686;23.350;2023-08-21T08:06:28;8.93;;;6.20;;
2039;SDS011;1025;42.686;23.350;2023-08-21T08:08:55;7.80;;;5.70;;
2039;SDS011;1025;42.686;23.350;2023-08-21T08:11:21;9.67;;;6.97;;
2039;SDS011;1025;42.686;23.350;2023-08-21T08:13:49;6.83;;;6.13;;
2039;SDS011;1025;42.686;23.350;2023-08-21T08:16:15;7.03;;;5.93;;
2039;SDS011;1025;42.686;23.350;2023-08-21T08:18:44;9.50;;;7.23;;
2039;SDS011;1025;42.686;23.350;2023-08-21T08:21:11;5.70;;;5.10;;
2039;SDS011;1025;42.686;23.350;2023-08-21T08:23:37;8.60;;;7.10;;
2039;SDS011;1025;42.686;23.350;2023-08-21T08:26:04;13.17;;;6.63;;
2039;SDS011;1025;42.686;23.350;2023-08-21T08:28:30;9.30;;;6.07;;
2039;SDS011;1025;42.686;23.350;2023-08-21T08:30:58;5.90;;;5.40;;
2039;SDS011;1025;42.686;23.350;2023-08-21T08:33:25;5.20;;;4.80;;
2039;SDS011;1025;42.686;23.350;2023-08-21T08:35:52;8.40;;;6.57;;
2039;SDS011;1025;42.686;23.350;2023-08-21T08:38:18;6.23;;;5.37;;
2039;SDS011;1025;42.686;23.350;2023-08-21T08:40:46;6.00;;;5.07;;
2039;SDS011;1025;42.686;23.350;2023-08-21T08:43:13;6.83;;;5.87;;
2039;SDS011;1025;42.686;23.350;2023-08-21T08:45:40;6.57;;;5.63;;
2039;SDS011;1025;42.686;23.350;2023-08-21T08:48:08;6.57;;;6.07;;
2039;SDS011;1025;42.686;23.350;2023-08-21T08:50:36;7.83;;;6.40;;
2039;SDS011;1025;42.686;23.350;2023-08-21T08:53:04;5.17;;;4.77;;
2039;SDS011;1025;42.686;23.350;2023-08-21T08:55:34;4.90;;;4.57;;
2039;SDS011;1025;42.686;23.350;2023-08-21T08:58:01;5.30;;;4.63;;
2039;SDS011;1025;42.686;23.350;2023-08-21T09:00:27;7.60;;;5.23;;
2039;SDS011;1025;42.686;23.350;2023-08-21T09:02:54;7.60;;;5.73;;
2039;SDS011;1025;42.686;23.350;2023-08-21T09:05:23;4.83;;;4.53;;
2039;SDS011;1025;42.686;23.350;2023-08-21T09:08:01;5.80;;;5.40;;
2039;SDS011;1025;42.686;23.350;2023-08-21T09:10:28;10.17;;;7.07;;
2039;SDS011;1025;42.686;23.350;2023-08-21T09:12:54;7.63;;;6.93;;
2039;SDS011;1025;42.686;23.350;2023-08-21T09:15:27;5.87;;;5.43;;
2039;SDS011;1025;42.686;23.350;2023-08-21T09:17:54;5.40;;;4.90;;
2039;SDS011;1025;42.686;23.350;2023-08-21T09:20:22;10.10;;;5.50;;
2039;SDS011;1025;42.686;23.350;2023-08-21T09:22:52;4.70;;;4.40;;
2039;SDS011;1025;42.686;23.350;2023-08-21T09:25:19;4.67;;;4.27;;
2039;SDS011;1025;42.686;23.350;2023-08-21T09:27:46;12.03;;;5.53;;
2039;SDS011;1025;42.686;23.350;2023-08-21T09:30:14;5.20;;;3.97;;
2039;SDS011;1025;42.686;23.350;2023-08-21T09:35:24;5.17;;;4.77;;
2039;SDS011;1025;42.686;23.350;2023-08-21T09:37:51;6.70;;;5.50;;
2039;SDS011;1025;42.686;23.350;2023-08-21T09:40:18;8.07;;;4.53;;
2039;SDS011;1025;42.686;23.350;2023-08-21T09:42:45;5.37;;;4.73;;
2039;SDS011;1025;42.686;23.350;2023-08-21T09:45:14;5.50;;;4.87;;
2039;SDS011;1025;42.686;23.350;2023-08-21T09:47:45;4.27;;;3.90;;
2039;SDS011;1025;42.686;23.350;2023-08-21T09:50:12;4.93;;;4.43;;
2039;SDS011;1025;42.686;23.350;2023-08-21T09:52:40;11.90;;;6.70;;
2039;SDS011;1025;42.686;23.350;2023-08-21T09:55:08;6.40;;;5.83;;
2039;SDS011;1025;42.686;23.350;2023-08-21T09:57:35;4.73;;;4.43;;
2039;SDS011;1025;42.686;23.350;2023-08-21T10:00:02;4.93;;;3.60;;
2039;SDS011;1025;42.686;23.350;2023-08-21T10:02:41;4.50;;;3.93;;
2039;SDS011;1025;42.686;23.350;2023-08-21T10:05:08;4.33;;;4.00;;
2039;SDS011;1025;42.686;23.350;2023-08-21T10:07:36;8.57;;;4.00;;
2039;SDS011;1025;42.686;23.350;2023-08-21T10:10:05;4.33;;;3.93;;
2039;SDS011;1025;42.686;23.350;2023-08-21T10:12:31;3.97;;;3.53;;
2039;SDS011;1025;42.686;23.350;2023-08-21T10:14:58;5.00;;;4.60;;
2039;SDS011;1025;42.686;23.350;2023-08-21T10:17:24;4.73;;;3.80;;
2039;SDS011;1025;42.686;23.350;2023-08-21T10:19:51;4.43;;;4.03;;
2039;SDS011;1025;42.686;23.350;2023-08-21T10:24:59;5.93;;;4.00;;
2039;SDS011;1025;42.686;23.350;2023-08-21T10:27:30;4.30;;;3.90;;
2039;SDS011;1025;42.686;23.350;2023-08-21T10:29:57;4.60;;;4.20;;
2039;SDS011;1025;42.686;23.350;2023-08-21T10:32:26;5.80;;;4.83;;
2039;SDS011;1025;42.686;23.350;2023-08-21T10:34:53;5.07;;;4.60;;
2039;SDS011;1025;42.686;23.350;2023-08-21T10:37:20;5.37;;;4.97;;
2039;SDS011;1025;42.686;23.350;2023-08-21T10:39:55;8.73;;;5.47;;
2039;SDS011;1025;42.686;23.350;2023-08-21T10:45:11;3.80;;;3.57;;
2039;SDS011;1025;42.686;23.350;2023-08-21T10:47:37;3.40;;;3.10;;
2039;SDS011;1025;42.686;23.350;2023-08-21T10:50:07;3.87;;;3.67;;
2039;SDS011;1025;42.686;23.350;2023-08-21T10:52:35;4.93;;;4.27;;
2039;SDS011;1025;42.686;23.350;2023-08-21T10:55:02;4.33;;;3.93;;
2039;SDS011;1025;42.686;23.350;2023-08-21T10:57:30;3.70;;;3.50;;
2039;SDS011;1025;42.686;23.350;2023-08-21T10:59:57;4.53;;;4.10;;
2039;SDS011;1025;42.686;23.350;2023-08-21T11:02:26;5.30;;;4.27;;
2039;SDS011;1025;42.686;23.350;2023-08-21T11:04:54;5.70;;;4.50;;
2039;SDS011;1025;42.686;23.350;2023-08-21T11:07:21;4.33;;;4.03;;
2039;SDS011;1025;42.686;23.350;2023-08-21T11:09:47;5.00;;;4.60;;
2039;SDS011;1025;42.686;23.350;2023-08-21T11:12:15;4.57;;;4.20;;
2039;SDS011;1025;42.686;23.350;2023-08-21T11:14:41;10.07;;;5.30;;
2039;SDS011;1025;42.686;23.350;2023-08-21T11:17:08;8.33;;;6.00;;
2039;SDS011;1025;42.686;23.350;2023-08-21T11:19:37;12.70;;;8.60;;
2039;SDS011;1025;42.686;23.350;2023-08-21T11:22:06;4.97;;;4.20;;
2039;SDS011;1025;42.686;23.350;2023-08-21T11:24:42;4.33;;;4.03;;
2039;SDS011;1025;42.686;23.350;2023-08-21T11:27:09;4.77;;;4.37;;
2039;SDS011;1025;42.686;23.350;2023-08-21T11:29:37;4.37;;;3.97;;
2039;SDS011;1025;42.686;23.350;2023-08-21T11:32:07;5.63;;;4.37;;
2039;SDS011;1025;42.686;23.350;2023-08-21T11:34:34;4.53;;;4.10;;
2039;SDS011;1025;42.686;23.350;2023-08-21T11:37:02;4.00;;;3.70;;
2039;SDS011;1025;42.686;23.350;2023-08-21T11:39:38;4.70;;;4.00;;
2039;SDS011;1025;42.686;23.350;2023-08-21T11:42:08;4.33;;;4.03;;
2039;SDS011;1025;42.686;23.350;2023-08-21T11:44:39;4.53;;;4.23;;
2039;SDS011;1025;42.686;23.350;2023-08-21T11:47:05;5.80;;;4.47;;
2039;SDS011;1025;42.686;23.350;2023-08-21T11:49:34;5.20;;;4.33;;
2039;SDS011;1025;42.686;23.350;2023-08-21T11:52:03;5.10;;;4.13;;
2039;SDS011;1025;42.686;23.350;2023-08-21T11:54:32;4.10;;;3.80;;
2039;SDS011;1025;42.686;23.350;2023-08-21T11:56:58;6.43;;;4.20;;
2039;SDS011;1025;42.686;23.350;2023-08-21T11:59:25;5.30;;;4.80;;
2039;SDS011;1025;42.686;23.350;2023-08-21T12:01:52;3.77;;;3.47;;
2039;SDS011;1025;42.686;23.350;2023-08-21T12:04:18;3.97;;;3.57;;
2039;SDS011;1025;42.686;23.350;2023-08-21T12:06:45;5.00;;;4.50;;
2039;SDS011;1025;42.686;23.350;2023-08-21T12:09:13;3.90;;;3.60;;
2039;SDS011;1025;42.686;23.350;2023-08-21T12:11:40;4.27;;;3.87;;
2039;SDS011;1025;42.686;23.350;2023-08-21T12:14:06;4.87;;;4.57;;
2039;SDS011;1025;42.686;23.350;2023-08-21T12:16:33;4.73;;;4.30;;
2039;SDS011;1025;42.686;23.350;2023-08-21T12:18:59;3.80;;;3.50;;
2039;SDS011;1025;42.686;23.350;2023-08-21T12:21:28;3.97;;;3.47;;
2039;SDS011;1025;42.686;23.350;2023-08-21T12:23:54;8.27;;;5.40;;
2039;SDS011;1025;42.686;23.350;2023-08-21T12:26:22;4.03;;;3.63;;
2039;SDS011;1025;42.686;23.350;2023-08-21T12:28:49;4.10;;;3.80;;
2039;SDS011;1025;42.686;23.350;2023-08-21T12:31:15;4.00;;;3.60;;
2039;SDS011;1025;42.686;23.350;2023-08-21T12:33:42;3.77;;;3.57;;
2039;SDS011;1025;42.686;23.350;2023-08-21T12:36:08;4.23;;;3.83;;
2039;SDS011;1025;42.686;23.350;2023-08-21T12:38:37;5.90;;;5.20;;
2039;SDS011;1025;42.686;23.350;2023-08-21T12:41:03;4.53;;;4.03;;
2039;SDS011;1025;42.686;23.350;2023-08-21T12:43:31;4.10;;;3.90;;
2039;SDS011;1025;42.686;23.350;2023-08-21T12:45:58;5.43;;;4.13;;
2039;SDS011;1025;42.686;23.350;2023-08-21T12:48:25;3.93;;;3.63;;
2039;SDS011;1025;42.686;23.350;2023-08-21T12:50:51;3.73;;;3.40;;
2039;SDS011;1025;42.686;23.350;2023-08-21T12:53:18;3.77;;;3.57;;
2039;SDS011;1025;42.686;23.350;2023-08-21T12:55:45;5.63;;;4.23;;
2039;SDS011;1025;42.686;23.350;2023-08-21T12:58:11;3.87;;;3.57;;
2039;SDS011;1025;42.686;23.350;2023-08-21T13:00:40;4.60;;;3.90;;
2039;SDS011;1025;42.686;23.350;2023-08-21T13:03:06;4.60;;;4.20;;
2039;SDS011;1025;42.686;23.350;2023-08-21T13:05:33;6.43;;;4.67;;
2039;SDS011;1025;42.686;23.350;2023-08-21T13:08:00;4.80;;;3.90;;
2039;SDS011;1025;42.686;23.350;2023-08-21T13:10:26;4.30;;;4.00;;
2039;SDS011;1025;42.686;23.350;2023-08-21T13:12:53;5.33;;;4.10;;
2039;SDS011;1025;42.686;23.350;2023-08-21T13:15:20;4.40;;;3.93;;
2039;SDS011;1025;42.686;23.350;2023-08-21T13:17:48;3.97;;;3.67;;
2039;SDS011;1025;42.686;23.350;2023-08-21T13:20:15;5.63;;;5.13;;
2039;SDS011;1025;42.686;23.350;2023-08-21T13:22:45;5.00;;;4.70;;
2039;SDS011;1025;42.686;23.350;2023-08-21T13:25:11;4.50;;;4.20;;
2039;SDS011;1025;42.686;23.350;2023-08-21T13:27:38;7.97;;;5.70;;
2039;SDS011;1025;42.686;23.350;2023-08-21T13:30:05;3.80;;;3.60;;
2039;SDS011;1025;42.686;23.350;2023-08-21T13:32:32;4.60;;;4.33;;
2039;SDS011;1025;42.686;23.350;2023-08-21T13:35:00;5.83;;;4.23;;
2039;SDS011;1025;42.686;23.350;2023-08-21T13:37:26;4.30;;;4.00;;
2039;SDS011;1025;42.686;23.350;2023-08-21T13:39:53;4.00;;;3.80;;
2039;SDS011;1025;42.686;23.350;2023-08-21T13:42:20;4.27;;;3.87;;
2039;SDS011;1025;42.686;23.350;2023-08-21T13:44:46;4.43;;;4.13;;
2039;SDS011;1025;42.686;23.350;2023-08-21T13:47:13;4.90;;;4.50;;
2039;SDS011;1025;42.686;23.350;2023-08-21T13:49:39;3.73;;;3.53;;
2039;SDS011;1025;42.686;23.350;2023-08-21T13:52:07;3.90;;;3.60;;
2039;SDS011;1025;42.686;23.350;2023-08-21T13:54:34;4.00;;;3.77;;
2039;SDS011;1025;42.686;23.350;2023-08-21T13:57:00;5.60;;;3.53;;
2039;SDS011;1025;42.686;23.350;2023-08-21T13:59:27;4.50;;;4.10;;
2039;SDS011;1025;42.686;23.350;2023-08-21T14:01:54;7.40;;;4.00;;
2039;SDS011;1025;42.686;23.350;2023-08-21T14:04:20;5.30;;;4.20;;
2039;SDS011;1025;42.686;23.350;2023-08-21T14:06:47;4.47;;;4.13;;
2039;SDS011;1025;42.686;23.350;2023-08-21T14:09:15;4.90;;;4.33;;
2039;SDS011;1025;42.686;23.350;2023-08-21T14:11:43;4.40;;;4.00;;
2039;SDS011;1025;42.686;23.350;2023-08-21T14:14:10;4.10;;;3.80;;
2039;SDS011;1025;42.686;23.350;2023-08-21T14:16:37;4.67;;;4.00;;
2039;SDS011;1025;42.686;23.350;2023-08-21T14:19:04;6.63;;;4.60;;
2039;SDS011;1025;42.686;23.350;2023-08-21T14:21:33;4.67;;;4.27;;
2039;SDS011;1025;42.686;23.350;2023-08-21T14:23:59;5.00;;;4.50;;
2039;SDS011;1025;42.686;23.350;2023-08-21T14:38:38;4.60;;;4.20;;
2039;SDS011;1025;42.686;23.350;2023-08-21T14:41:09;4.80;;;4.40;;
2039;SDS011;1025;42.686;23.350;2023-08-21T14:43:39;5.10;;;4.60;;
2039;SDS011;1025;42.686;23.350;2023-08-21T14:46:44;4.77;;;4.37;;
2039;SDS011;1025;42.686;23.350;2023-08-21T14:49:15;8.20;;;5.83;;
2039;SDS011;1025;42.686;23.350;2023-08-21T14:51:42;5.93;;;5.53;;
2039;SDS011;1025;42.686;23.350;2023-08-21T14:54:10;3.87;;;3.63;;
2039;SDS011;1025;42.686;23.350;2023-08-21T14:56:37;6.93;;;6.43;;
2039;SDS011;1025;42.686;23.350;2023-08-21T14:59:04;4.93;;;4.43;;
2039;SDS011;1025;42.686;23.350;2023-08-21T15:01:31;4.77;;;4.37;;
2039;SDS011;1025;42.686;23.350;2023-08-21T15:03:57;4.20;;;3.90;;
2039;SDS011;1025;42.686;23.350;2023-08-21T15:06:24;5.20;;;4.70;;
2039;SDS011;1025;42.686;23.350;2023-08-21T15:08:51;5.37;;;4.97;;
2039;SDS011;1025;42.686;23.350;2023-08-21T15:11:19;8.37;;;5.30;;
2039;SDS011;1025;42.686;23.350;2023-08-21T15:13:46;4.63;;;4.00;;
2039;SDS011;1025;42.686;23.350;2023-08-21T15:16:12;4.53;;;4.03;;
2039;SDS011;1025;42.686;23.350;2023-08-21T15:18:39;4.97;;;4.47;;